createdAt,value
2022-09-26T00:01:22.837Z,92.24
2022-09-26T00:03:52.844Z,92.81
2022-09-26T00:06:21.450Z,93.07
2022-09-26T00:08:49.894Z,92.75
2022-09-26T00:11:20.114Z,93.38
2022-09-26T00:13:47.786Z,94.96
2022-09-26T00:16:15.928Z,94.40
2022-09-26T00:18:42.599Z,94.53
2022-09-26T00:21:14.666Z,94.18
2022-09-26T00:23:44.845Z,94.59
2022-09-26T00:26:14.083Z,94.72
2022-09-26T00:28:42.030Z,94.77
2022-09-26T00:31:11.225Z,94.66
2022-09-26T00:33:38.965Z,94.04
2022-09-26T00:36:06.810Z,93.52
2022-09-26T00:38:34.151Z,93.54
2022-09-26T00:41:01.513Z,92.73
2022-09-26T00:43:40.047Z,92.37
2022-09-26T00:46:28.424Z,92.30
2022-09-26T00:49:03.701Z,92.91
2022-09-26T00:51:30.919Z,93.49
2022-09-26T00:53:57.693Z,93.33
2022-09-26T00:56:30.630Z,93.31
2022-09-26T00:59:23.388Z,93.47
2022-09-26T01:01:56.357Z,93.57
2022-09-26T01:04:28.660Z,93.34
2022-09-26T01:07:01.589Z,93.38
2022-09-26T01:09:29.924Z,93.03
2022-09-26T01:11:57.220Z,93.04
2022-09-26T01:14:25.203Z,92.95
2022-09-26T01:16:51.903Z,91.11
2022-09-26T01:19:43.282Z,91.08
2022-09-26T01:22:31.940Z,92.23
2022-09-26T01:25:46.297Z,92.62
2022-09-26T01:28:31.539Z,92.83
2022-09-26T01:31:07.426Z,93.03
2022-09-26T01:33:46.553Z,93.42
2022-09-26T01:36:28.839Z,93.39
2022-09-26T01:39:01.719Z,91.88
2022-09-26T01:41:34.578Z,92.28
2022-09-26T01:44:16.206Z,92.67
2022-09-26T01:46:55.640Z,93.38
2022-09-26T01:49:24.979Z,93.58
2022-09-26T01:52:10.936Z,93.36
2022-09-26T01:54:46.895Z,92.08
2022-09-26T01:57:19.723Z,91.12
2022-09-26T01:59:51.259Z,91.30
2022-09-26T02:02:26.259Z,89.78
2022-09-26T02:04:57.412Z,90.61
2022-09-26T02:07:53.674Z,91.41
2022-09-26T02:10:48.017Z,91.33
2022-09-26T02:13:21.223Z,91.48
2022-09-26T02:15:53.068Z,91.99
2022-09-26T02:18:33.363Z,92.11
2022-09-26T02:21:10.263Z,92.38
2022-09-26T02:23:36.973Z,92.37
2022-09-26T02:26:04.235Z,93.27
2022-09-26T02:28:31.463Z,92.06
2022-09-26T02:31:01.534Z,92.96
2022-09-26T02:33:31.359Z,93.02
2022-09-26T02:35:58.603Z,93.51
2022-09-26T02:38:29.297Z,93.29
2022-09-26T02:41:22.553Z,93.13
2022-09-26T02:44:07.717Z,92.63
2022-09-26T02:46:38.360Z,92.44
2022-09-26T02:49:04.831Z,91.87
2022-09-26T02:51:33.994Z,90.46
2022-09-26T02:54:18.463Z,89.85
2022-09-26T02:57:13.224Z,90.33
2022-09-26T03:00:10.628Z,91.70
2022-09-26T03:02:47.536Z,92.31
2022-09-26T03:05:45.715Z,92.30
2022-09-26T03:08:17.971Z,92.84
2022-09-26T03:10:46.792Z,93.23
2022-09-26T03:13:16.759Z,93.52
2022-09-26T03:15:49.147Z,93.79
2022-09-26T03:18:21.667Z,93.12
2022-09-26T03:20:48.896Z,92.83
2022-09-26T03:23:15.986Z,93.70
2022-09-26T03:25:42.920Z,93.60
2022-09-26T03:28:10.211Z,92.29
2022-09-26T03:30:36.814Z,92.70
2022-09-26T03:33:03.486Z,92.93
2022-09-26T03:35:30.303Z,93.94
2022-09-26T03:37:56.917Z,92.90
2022-09-26T03:40:23.604Z,92.27
2022-09-26T03:42:50.417Z,92.34
2022-09-26T03:45:17.451Z,91.44
2022-09-26T03:47:44.156Z,91.08
2022-09-26T03:50:10.959Z,91.88
2022-09-26T03:52:37.647Z,92.33
2022-09-26T03:55:05.139Z,92.15
2022-09-26T03:57:31.654Z,91.99
2022-09-26T03:59:58.461Z,91.27
2022-09-26T04:02:25.255Z,91.22
2022-09-26T04:04:51.920Z,91.34
2022-09-26T04:07:18.524Z,91.85
2022-09-26T04:09:45.176Z,91.67
2022-09-26T04:12:11.822Z,92.45
2022-09-26T04:14:38.530Z,93.24
2022-09-26T04:17:05.073Z,93.97
2022-09-26T04:19:32.057Z,93.58
2022-09-26T04:21:59.450Z,92.67
2022-09-26T04:24:26.291Z,93.20
2022-09-26T04:26:53.373Z,93.22
2022-09-26T04:29:20.098Z,92.57
2022-09-26T04:31:46.806Z,93.54
2022-09-26T04:34:14.941Z,93.93
2022-09-26T04:36:42.763Z,94.29
2022-09-26T04:39:09.614Z,94.34
2022-09-26T04:41:38.026Z,93.63
2022-09-26T04:44:04.752Z,95.39
2022-09-26T04:46:31.643Z,92.68
2022-09-26T04:49:00.288Z,92.41
2022-09-26T04:51:28.869Z,92.43
2022-09-26T04:53:55.943Z,92.20
2022-09-26T04:56:24.423Z,92.82
2022-09-26T04:58:51.635Z,92.13
2022-09-26T05:01:20.606Z,92.08
2022-09-26T05:03:47.610Z,91.93
2022-09-26T05:06:15.577Z,92.43
2022-09-26T05:08:46.531Z,90.21
2022-09-26T05:11:14.835Z,89.02
2022-09-26T05:13:41.699Z,89.53
2022-09-26T05:16:08.891Z,88.60
2022-09-26T05:18:37.563Z,87.52
2022-09-26T05:21:06.040Z,87.10
2022-09-26T05:23:51.210Z,85.38
2022-09-26T05:26:49.498Z,84.00
2022-09-26T05:29:17.465Z,84.22
2022-09-26T05:31:44.725Z,75.91
2022-09-26T05:34:18.524Z,66.13
2022-09-26T05:36:45.970Z,58.44
2022-09-26T05:39:31.592Z,53.10
2022-09-26T05:41:59.283Z,49.62
2022-09-26T05:44:27.678Z,49.10
2022-09-26T05:46:57.643Z,51.29
2022-09-26T05:49:24.346Z,54.63
2022-09-26T05:51:51.222Z,57.51
2022-09-26T05:54:17.938Z,58.35
2022-09-26T05:56:44.612Z,56.59
2022-09-26T05:59:11.219Z,53.05
2022-09-26T06:01:37.995Z,54.22
2022-09-26T06:04:04.770Z,51.87
2022-09-26T06:06:31.423Z,48.38
2022-09-26T06:08:58.136Z,43.63
2022-09-26T06:11:31.001Z,40.98
2022-09-26T06:14:00.881Z,37.90
2022-09-26T06:16:28.490Z,36.10
2022-09-26T06:18:55.885Z,35.50
2022-09-26T06:21:23.466Z,35.36
2022-09-26T06:23:50.361Z,35.17
2022-09-26T06:26:22.796Z,35.83
2022-09-26T06:28:55.324Z,35.68
2022-09-26T06:31:23.245Z,35.27
2022-09-26T06:33:53.270Z,34.29
2022-09-26T06:36:20.635Z,33.34
2022-09-26T06:38:47.295Z,32.36
2022-09-26T06:41:15.234Z,32.68
2022-09-26T06:43:43.052Z,33.34
2022-09-26T06:46:09.670Z,32.59
2022-09-26T06:48:36.727Z,33.10
2022-09-26T06:51:03.578Z,32.72
2022-09-26T06:53:31.483Z,32.54
2022-09-26T06:56:02.323Z,32.29
2022-09-26T06:58:29.494Z,31.46
2022-09-26T07:00:56.872Z,31.14
2022-09-26T07:03:26.706Z,31.46
2022-09-26T07:05:57.670Z,31.54
2022-09-26T07:08:49.983Z,31.04
2022-09-26T07:11:35.093Z,31.17
2022-09-26T07:14:02.205Z,30.77
2022-09-26T07:16:29.704Z,31.04
2022-09-26T07:18:57.240Z,30.58
2022-09-26T07:21:24.170Z,30.50
2022-09-26T07:23:50.865Z,31.55
2022-09-26T07:26:17.579Z,31.67
2022-09-26T07:28:44.838Z,32.82
2022-09-26T07:31:11.591Z,34.69
2022-09-26T07:33:39.575Z,34.85
2022-09-26T07:36:06.675Z,34.65
2022-09-26T07:38:33.560Z,35.01
2022-09-26T07:41:01.223Z,35.55
2022-09-26T07:43:53.600Z,35.79
2022-09-26T07:46:33.628Z,36.66
2022-09-26T07:49:18.696Z,37.98
2022-09-26T07:51:45.946Z,37.68
2022-09-26T07:54:12.804Z,37.29
2022-09-26T07:56:40.526Z,36.38
2022-09-26T07:59:07.122Z,35.34
2022-09-26T08:01:37.666Z,34.48
2022-09-26T08:04:05.860Z,33.68
2022-09-26T08:06:35.176Z,34.40
2022-09-26T08:09:01.955Z,33.82
2022-09-26T08:11:28.885Z,32.74
2022-09-26T08:13:55.947Z,32.34
2022-09-26T08:16:26.202Z,32.44
2022-09-26T08:18:54.287Z,33.87
2022-09-26T08:21:22.868Z,34.61
2022-09-26T08:23:49.444Z,34.97
2022-09-26T08:26:16.382Z,34.31
2022-09-26T08:28:43.134Z,34.78
2022-09-26T08:31:10.333Z,34.78
2022-09-26T08:33:39.124Z,35.72
2022-09-26T08:36:07.890Z,35.02
2022-09-26T08:38:35.862Z,34.51
2022-09-26T08:41:21.580Z,33.87
2022-09-26T08:44:14.781Z,33.67
2022-09-26T08:47:05.989Z,33.63
2022-09-26T08:49:48.990Z,33.20
2022-09-26T08:52:18.645Z,33.86
2022-09-26T08:54:47.077Z,33.77
2022-09-26T08:57:32.638Z,34.25
2022-09-26T09:00:03.311Z,34.28
2022-09-26T09:02:39.492Z,35.04
2022-09-26T09:05:18.063Z,35.16
2022-09-26T09:07:50.448Z,34.96
2022-09-26T09:10:20.564Z,34.67
2022-09-26T09:13:04.196Z,34.37
2022-09-26T09:15:39.811Z,34.03
2022-09-26T09:18:29.281Z,34.22
2022-09-26T09:21:23.272Z,34.03
2022-09-26T09:24:09.851Z,33.03
2022-09-26T09:29:56.712Z,32.43
2022-09-26T09:32:55.477Z,32.27
2022-09-26T09:35:49.961Z,31.93
2022-09-26T09:38:19.899Z,31.47
2022-09-26T09:40:53.221Z,32.09
2022-09-26T09:43:31.886Z,32.95
2022-09-26T09:46:41.581Z,32.56
2022-09-26T09:49:08.558Z,32.38
2022-09-26T09:51:58.328Z,32.82
2022-09-26T09:54:40.595Z,32.17
2022-09-26T09:57:31.839Z,32.32
2022-09-26T10:00:09.604Z,33.03
2022-09-26T10:03:03.102Z,33.05
2022-09-26T10:05:43.139Z,32.66
2022-09-26T10:08:17.553Z,32.47
2022-09-26T10:10:50.502Z,31.77
2022-09-26T10:13:17.986Z,31.45
2022-09-26T10:16:17.062Z,32.01
2022-09-26T10:19:06.788Z,32.17
2022-09-26T10:21:43.726Z,32.00
2022-09-26T10:24:41.353Z,32.53
2022-09-26T10:27:24.233Z,32.36
2022-09-26T10:30:02.398Z,32.53
2022-09-26T10:32:30.269Z,32.42
2022-09-26T10:35:25.339Z,32.48
2022-09-26T10:38:06.110Z,32.73
2022-09-26T10:40:45.495Z,32.16
2022-09-26T10:43:24.199Z,32.25
2022-09-26T10:45:54.972Z,32.07
2022-09-26T10:48:28.115Z,32.00
2022-09-26T10:51:00.620Z,31.61
2022-09-26T10:53:37.183Z,31.80
2022-09-26T10:56:21.690Z,31.24
2022-09-26T10:58:52.234Z,32.24
2022-09-26T11:01:28.726Z,32.25
2022-09-26T11:04:01.920Z,31.75
2022-09-26T11:06:40.704Z,31.58
2022-09-26T11:09:07.736Z,31.59
2022-09-26T11:11:38.566Z,31.42
2022-09-26T11:14:09.871Z,31.40
2022-09-26T11:16:51.960Z,31.11
2022-09-26T11:19:47.410Z,30.70
2022-09-26T11:22:34.508Z,31.54
2022-09-26T11:25:17.386Z,30.92
2022-09-26T11:28:01.127Z,30.77
2022-09-26T11:30:30.291Z,30.66
2022-09-26T11:33:00.568Z,30.58
2022-09-26T11:35:43.698Z,30.92
2022-09-26T11:38:38.669Z,31.18
2022-09-26T11:41:42.174Z,31.34
2022-09-26T11:44:58.971Z,31.20
2022-09-26T11:47:55.640Z,31.26
2022-09-26T11:50:39.961Z,30.87
2022-09-26T11:53:12.464Z,30.77
2022-09-26T11:56:15.888Z,30.64
2022-09-26T11:58:53.362Z,30.15
2022-09-26T12:01:35.604Z,30.68
2022-09-26T12:04:02.436Z,31.11
2022-09-26T12:07:02.401Z,31.04
2022-09-26T12:09:45.494Z,31.16
2022-09-26T12:12:35.860Z,31.11
2022-09-26T12:15:23.864Z,30.63
2022-09-26T12:17:53.479Z,30.69
2022-09-26T12:20:58.886Z,30.21
2022-09-26T12:23:36.514Z,30.19
2022-09-26T12:26:13.664Z,30.37
2022-09-26T12:28:52.253Z,30.62
2022-09-26T12:31:39.539Z,30.46
2022-09-26T12:34:30.570Z,30.04
2022-09-26T12:37:36.624Z,30.04
2022-09-26T12:40:17.891Z,30.34
2022-09-26T12:42:52.386Z,29.72
2022-09-26T12:45:43.745Z,29.45
2022-09-26T12:48:21.035Z,29.60
2022-09-26T12:51:16.852Z,30.55
2022-09-26T12:54:00.189Z,30.74
2022-09-26T12:56:56.525Z,31.47
2022-09-26T12:59:51.877Z,31.87
2022-09-26T13:02:52.801Z,32.32
2022-09-26T13:05:22.799Z,32.34
2022-09-26T13:08:19.169Z,32.27
2022-09-26T13:11:04.803Z,32.54
2022-09-26T13:13:48.016Z,32.54
2022-09-26T13:16:25.603Z,32.45
2022-09-26T13:19:00.410Z,32.46
2022-09-26T13:21:34.650Z,32.32
2022-09-26T13:24:13.258Z,32.40
2022-09-26T13:26:45.647Z,32.50
2022-09-26T13:29:26.731Z,32.70
2022-09-26T13:32:47.799Z,32.70
2022-09-26T13:35:24.331Z,32.78
2022-09-26T13:38:15.701Z,32.64
2022-09-26T13:41:06.774Z,32.53
2022-09-26T13:43:44.549Z,32.55
2022-09-26T13:46:32.493Z,32.47
2022-09-26T13:49:18.578Z,32.76
2022-09-26T13:51:54.630Z,32.93
2022-09-26T13:54:54.572Z,33.01
2022-09-26T13:57:36.564Z,33.35
2022-09-26T14:00:41.328Z,33.44
2022-09-26T14:03:14.075Z,33.49
2022-09-26T14:05:44.298Z,33.37
2022-09-26T14:08:50.671Z,33.71
2022-09-26T14:11:24.484Z,33.73
2022-09-26T14:14:21.537Z,33.09
2022-09-26T14:16:51.179Z,33.50
2022-09-26T14:19:27.300Z,34.36
2022-09-26T14:22:05.493Z,34.00
2022-09-26T14:24:37.623Z,33.90
2022-09-26T14:27:10.364Z,34.13
2022-09-26T14:29:39.914Z,34.71
2022-09-26T14:32:10.610Z,34.50
2022-09-26T14:34:57.380Z,34.65
2022-09-26T14:37:26.709Z,34.60
2022-09-26T14:40:27.364Z,34.51
2022-09-26T14:43:19.544Z,34.48
2022-09-26T14:45:52.674Z,34.41
2022-09-26T14:48:32.620Z,34.36
2022-09-26T14:51:01.442Z,34.13
2022-09-26T14:53:56.340Z,34.31
2022-09-26T14:56:27.276Z,34.31
2022-09-26T14:59:14.539Z,34.40
2022-09-26T15:01:42.993Z,34.42
2022-09-26T15:04:18.751Z,34.45
2022-09-26T15:06:48.980Z,34.64
2022-09-26T15:09:24.165Z,34.66
2022-09-26T15:11:59.748Z,34.90
2022-09-26T15:14:44.290Z,34.99
2022-09-26T15:17:23.800Z,34.89
2022-09-26T15:19:54.882Z,35.34
2022-09-26T15:22:25.169Z,35.86
2022-09-26T15:25:06.505Z,35.89
2022-09-26T15:27:33.952Z,36.19
2022-09-26T15:30:24.411Z,36.47
2022-09-26T15:32:57.294Z,36.35
2022-09-26T15:35:24.175Z,36.68
2022-09-26T15:37:50.970Z,36.76
2022-09-26T15:40:19.179Z,36.53
2022-09-26T15:42:59.047Z,36.56
2022-09-26T15:45:30.666Z,36.56
2022-09-26T15:48:01.811Z,36.46
2022-09-26T15:50:34.575Z,36.78
2022-09-26T15:53:16.015Z,36.80
2022-09-26T15:55:55.213Z,36.79
2022-09-26T15:58:31.436Z,36.82
2022-09-26T16:00:58.533Z,36.87
2022-09-26T16:03:55.236Z,37.14
2022-09-26T16:06:35.333Z,36.97
2022-09-26T16:09:12.582Z,36.75
2022-09-26T16:11:54.466Z,37.02
2022-09-26T16:14:26.637Z,36.70
2022-09-26T16:16:55.964Z,36.49
2022-09-26T16:19:32.370Z,36.59
2022-09-26T16:22:18.895Z,36.26
2022-09-26T16:24:45.988Z,36.36
2022-09-26T16:27:26.990Z,36.47
2022-09-26T16:29:53.698Z,36.58
2022-09-26T16:32:22.029Z,36.63
2022-09-26T16:34:49.394Z,36.64
2022-09-26T16:37:21.151Z,36.40
2022-09-26T16:39:57.214Z,36.06
2022-09-26T16:42:27.957Z,36.04
2022-09-26T16:44:55.524Z,36.28
2022-09-26T16:47:34.438Z,36.21
2022-09-26T16:50:40.421Z,36.34
2022-09-26T16:53:15.690Z,36.56
2022-09-26T16:55:42.679Z,36.50
2022-09-26T16:58:13.005Z,36.92
2022-09-26T17:00:58.800Z,36.94
2022-09-26T17:03:29.403Z,37.09
2022-09-26T17:05:58.271Z,37.42
2022-09-26T17:08:26.607Z,37.55
2022-09-26T17:10:55.371Z,37.51
2022-09-26T17:13:24.724Z,37.68
2022-09-26T17:15:57.792Z,37.51
2022-09-26T17:18:29.703Z,37.54
2022-09-26T17:20:59.401Z,38.05
2022-09-26T17:23:42.501Z,38.00
2022-09-26T17:26:18.724Z,38.75
2022-09-26T17:28:45.761Z,38.80
2022-09-26T17:31:21.345Z,38.95
2022-09-26T17:33:52.630Z,39.10
2022-09-26T17:36:25.814Z,39.13
2022-09-26T17:38:53.471Z,39.18
2022-09-26T17:41:21.108Z,39.25
2022-09-26T17:43:47.791Z,39.18
2022-09-26T17:46:16.319Z,39.19
2022-09-26T17:48:44.667Z,39.10
2022-09-26T17:51:15.124Z,39.79
2022-09-26T17:53:50.937Z,39.90
2022-09-26T17:56:19.733Z,40.38
2022-09-26T17:58:48.095Z,40.90
2022-09-26T18:01:25.692Z,41.91
2022-09-26T18:03:57.930Z,43.13
2022-09-26T18:06:28.533Z,43.66
2022-09-26T18:08:59.711Z,44.64
2022-09-26T18:11:27.184Z,45.19
2022-09-26T18:13:55.407Z,45.18
2022-09-26T18:16:24.894Z,45.26
2022-09-26T18:18:51.766Z,45.88
2022-09-26T18:21:19.964Z,46.15
2022-09-26T18:23:56.967Z,47.09
2022-09-26T18:26:31.598Z,47.08
2022-09-26T18:29:02.430Z,47.56
2022-09-26T18:31:31.777Z,48.53
2022-09-26T18:33:58.642Z,48.78
2022-09-26T18:36:26.432Z,48.70
2022-09-26T18:38:54.274Z,46.88
2022-09-26T18:41:25.052Z,47.37
2022-09-26T18:43:54.130Z,47.29
2022-09-26T18:46:23.860Z,47.51
2022-09-26T18:48:54.811Z,47.66
2022-09-26T18:51:21.422Z,49.08
2022-09-26T18:53:48.016Z,52.14
2022-09-26T18:56:33.347Z,56.80
2022-09-26T18:59:00.205Z,60.47
2022-09-26T19:01:30.242Z,64.93
2022-09-26T19:04:06.997Z,66.02
2022-09-26T19:06:40.874Z,70.24
2022-09-26T19:09:17.871Z,74.76
2022-09-26T19:11:44.582Z,78.84
2022-09-26T19:14:19.340Z,84.82
2022-09-26T19:16:48.704Z,90.87
2022-09-26T19:19:15.911Z,94.32
2022-09-26T19:21:55.535Z,99.96
2022-09-26T19:24:22.591Z,100.00
2022-09-26T19:26:52.927Z,100.00
2022-09-26T19:29:33.549Z,100.00
2022-09-26T19:32:00.995Z,100.00
2022-09-26T19:34:31.863Z,100.00
2022-09-26T19:37:01.540Z,100.00
2022-09-26T19:39:28.232Z,100.00
2022-09-26T19:41:54.805Z,100.00
2022-09-26T19:44:21.494Z,100.00
2022-09-26T19:46:48.148Z,100.00
2022-09-26T19:49:18.020Z,100.00
2022-09-26T19:51:45.739Z,100.00
2022-09-26T19:54:18.001Z,100.00
2022-09-26T19:56:46.799Z,100.00
2022-09-26T19:59:14.615Z,100.00
2022-09-26T20:01:44.266Z,100.00
2022-09-26T20:04:19.113Z,100.00
2022-09-26T20:06:46.841Z,100.00
2022-09-26T20:09:17.085Z,100.00
2022-09-26T20:11:44.051Z,100.00
2022-09-26T20:14:26.029Z,100.00
2022-09-26T20:16:56.217Z,100.00
2022-09-26T20:19:36.234Z,100.00
2022-09-26T20:22:05.427Z,100.00
2022-09-26T20:24:33.548Z,100.00
2022-09-26T20:27:07.579Z,100.00
2022-09-26T20:29:55.189Z,100.00
2022-09-26T20:32:21.973Z,100.00
2022-09-26T20:34:48.778Z,100.00
2022-09-26T20:37:15.962Z,100.00
2022-09-26T20:39:43.169Z,100.00
2022-09-26T20:42:16.306Z,100.00
2022-09-26T20:44:44.363Z,100.00
2022-09-26T20:47:15.913Z,100.00
2022-09-26T20:49:46.162Z,100.00
2022-09-26T20:52:19.756Z,100.00
2022-09-26T20:54:46.457Z,100.00
2022-09-26T20:57:15.050Z,100.00
2022-09-26T20:59:41.911Z,100.00
2022-09-26T21:02:20.937Z,100.00
2022-09-26T21:04:47.741Z,100.00
2022-09-26T21:07:18.072Z,100.00
2022-09-26T21:09:45.294Z,100.00
2022-09-26T21:12:16.783Z,100.00
2022-09-26T21:14:43.672Z,100.00
2022-09-26T21:17:27.640Z,100.00
2022-09-26T21:19:55.970Z,100.00
2022-09-26T21:22:26.754Z,100.00
2022-09-26T21:24:54.284Z,100.00
2022-09-26T21:27:21.121Z,100.00
2022-09-26T21:29:47.868Z,100.00
2022-09-26T21:32:19.230Z,100.00
2022-09-26T21:34:58.170Z,100.00
2022-09-26T21:37:24.973Z,100.00
2022-09-26T21:39:51.759Z,100.00
2022-09-26T21:42:18.510Z,100.00
2022-09-26T21:44:49.427Z,100.00
2022-09-26T21:47:15.971Z,100.00
2022-09-26T21:49:42.647Z,100.00
2022-09-26T21:52:21.408Z,100.00
2022-09-26T21:55:06.580Z,100.00
2022-09-26T21:57:39.051Z,100.00
2022-09-26T22:00:09.995Z,100.00
2022-09-26T22:02:37.178Z,100.00
2022-09-26T22:05:04.348Z,100.00
2022-09-26T22:07:31.230Z,100.00
2022-09-26T22:09:58.267Z,100.00
2022-09-26T22:12:25.056Z,100.00
2022-09-26T22:14:51.666Z,100.00
2022-09-26T22:17:18.741Z,100.00
2022-09-26T22:19:47.475Z,100.00
2022-09-26T22:22:14.159Z,100.00
2022-09-26T22:24:40.833Z,100.00
2022-09-26T22:27:07.607Z,100.00
2022-09-26T22:29:34.206Z,100.00
2022-09-26T22:32:01.482Z,100.00
2022-09-26T22:34:28.088Z,100.00
2022-09-26T22:36:54.650Z,100.00
2022-09-26T22:39:21.434Z,100.00
2022-09-26T22:41:48.041Z,100.00
2022-09-26T22:44:15.058Z,100.00
2022-09-26T22:46:42.002Z,100.00
2022-09-26T22:49:08.763Z,100.00
2022-09-26T22:51:35.533Z,100.00
2022-09-26T22:54:02.286Z,100.00
2022-09-26T22:56:29.265Z,100.00
2022-09-26T22:58:56.081Z,100.00
2022-09-26T23:01:27.303Z,100.00
2022-09-26T23:03:54.883Z,100.00
2022-09-26T23:06:22.642Z,100.00
2022-09-26T23:08:49.911Z,100.00
2022-09-26T23:11:18.220Z,100.00
2022-09-26T23:13:46.048Z,100.00
2022-09-26T23:16:18.315Z,100.00
2022-09-26T23:18:45.308Z,100.00
2022-09-26T23:21:17.541Z,100.00
2022-09-26T23:23:46.628Z,100.00
2022-09-26T23:26:31.778Z,100.00
2022-09-26T23:28:59.619Z,100.00
2022-09-26T23:31:27.738Z,100.00
2022-09-26T23:33:54.935Z,100.00
2022-09-26T23:36:22.103Z,100.00
2022-09-26T23:38:49.916Z,100.00
2022-09-26T23:41:16.847Z,100.00
2022-09-26T23:43:44.112Z,100.00
2022-09-26T23:46:11.173Z,100.00
2022-09-26T23:48:39.895Z,100.00
2022-09-26T23:51:06.949Z,100.00
2022-09-26T23:53:34.160Z,100.00
2022-09-26T23:56:12.571Z,100.00
2022-09-26T23:58:39.258Z,100.00
